createdAt,value
2023-02-03T00:00:37.341Z,101261.72
2023-02-03T00:01:40.165Z,101276.69
2023-02-03T00:02:42.029Z,101276.59
2023-02-03T00:03:44.781Z,101267.78
2023-02-03T00:04:46.523Z,101273.25
2023-02-03T00:05:49.448Z,101286.66
2023-02-03T00:06:51.380Z,101283.47
2023-02-03T00:07:54.257Z,101278.25
2023-02-03T00:08:56.808Z,101274.97
2023-02-03T00:09:59.646Z,101284.22
2023-02-03T00:11:01.378Z,101289.41
2023-02-03T00:12:04.181Z,101291.13
2023-02-03T00:13:06.575Z,101290.56
2023-02-03T00:14:09.244Z,101283.94
2023-02-03T00:15:12.577Z,101285.19
2023-02-03T00:16:15.326Z,101272.09
2023-02-03T00:17:17.075Z,101265.53
2023-02-03T00:18:19.935Z,101267.25
2023-02-03T00:19:21.635Z,101253.47
2023-02-03T00:20:26.033Z,101248.88
2023-02-03T00:21:28.080Z,101245.13
2023-02-03T00:22:30.804Z,101250.34
2023-02-03T00:23:32.865Z,101240.28
2023-02-03T00:24:35.601Z,101236.94
2023-02-03T00:25:37.930Z,101234.34
2023-02-03T00:26:42.704Z,101241.53
2023-02-03T00:27:44.982Z,101235.22
2023-02-03T00:28:47.865Z,101236.22
2023-02-03T00:29:49.590Z,101242.53
2023-02-03T00:30:54.137Z,101232.50
2023-02-03T00:31:56.042Z,101239.28
2023-02-03T00:32:58.822Z,101240.81
2023-02-03T00:34:00.538Z,101230.63
2023-02-03T00:35:03.245Z,101230.44
2023-02-03T00:36:05.917Z,101221.72
2023-02-03T00:37:08.679Z,101225.16
2023-02-03T00:38:10.364Z,101230.38
2023-02-03T00:39:13.166Z,101242.28
2023-02-03T00:40:15.078Z,101241.22
2023-02-03T00:41:17.831Z,101232.22
2023-02-03T00:42:19.614Z,101242.78
2023-02-03T00:43:22.583Z,101238.88
2023-02-03T00:44:24.399Z,101261.41
2023-02-03T00:45:27.358Z,101260.09
2023-02-03T00:46:30.450Z,101251.19
2023-02-03T00:47:33.163Z,101252.75
2023-02-03T00:48:36.396Z,101258.50
2023-02-03T00:49:39.122Z,101257.19
2023-02-03T00:50:41.013Z,101266.31
2023-02-03T00:51:43.695Z,101264.28
2023-02-03T00:52:45.421Z,101269.75
2023-02-03T00:53:48.712Z,101262.97
2023-02-03T00:54:50.416Z,101263.34
2023-02-03T00:55:53.141Z,101259.22
2023-02-03T00:56:54.842Z,101253.22
2023-02-03T00:57:57.556Z,101247.13
2023-02-03T00:58:59.228Z,101252.75
2023-02-03T01:00:01.955Z,101244.56
2023-02-03T01:01:03.707Z,101240.81
2023-02-03T01:02:08.002Z,101239.25
2023-02-03T01:03:10.419Z,101233.31
2023-02-03T01:04:13.094Z,101234.66
2023-02-03T01:05:14.924Z,101225.47
2023-02-03T01:06:20.057Z,101222.03
2023-02-03T01:07:21.726Z,101212.81
2023-02-03T01:08:24.411Z,101209.84
2023-02-03T01:09:26.468Z,101203.38
2023-02-03T01:10:29.405Z,101198.56
2023-02-03T01:11:32.672Z,101191.06
2023-02-03T01:12:35.446Z,101192.22
2023-02-03T01:13:37.719Z,101182.66
2023-02-03T01:14:41.075Z,101182.34
2023-02-03T01:15:46.871Z,101185.22
2023-02-03T01:16:49.638Z,101174.47
2023-02-03T01:17:52.797Z,101183.19
2023-02-03T01:18:56.442Z,101174.56
2023-02-03T01:19:58.167Z,101180.31
2023-02-03T01:21:06.373Z,101185.56
2023-02-03T01:22:10.820Z,101195.81
2023-02-03T01:23:13.553Z,101199.41
2023-02-03T01:24:15.261Z,101204.00
2023-02-03T01:25:18.277Z,101213.78
2023-02-03T01:26:21.026Z,101232.88
2023-02-03T01:27:23.723Z,101223.97
2023-02-03T01:28:25.487Z,101218.03
2023-02-03T01:29:28.183Z,101225.75
2023-02-03T01:30:30.176Z,101211.72
2023-02-03T01:31:37.154Z,101207.06
2023-02-03T01:32:39.066Z,101207.59
2023-02-03T01:33:46.234Z,101196.00
2023-02-03T01:34:47.919Z,101201.06
2023-02-03T01:35:50.706Z,101197.00
2023-02-03T01:36:53.566Z,101192.94
2023-02-03T01:37:56.263Z,101199.94
2023-02-03T01:38:58.043Z,101194.19
2023-02-03T01:40:00.746Z,101197.94
2023-02-03T01:41:02.930Z,101193.09
2023-02-03T01:42:05.960Z,101193.94
2023-02-03T01:43:09.153Z,101195.66
2023-02-03T01:44:41.465Z,101196.16
2023-02-03T01:45:43.257Z,101194.56
2023-02-03T01:46:48.407Z,101190.78
2023-02-03T01:47:51.122Z,101200.28
2023-02-03T01:48:58.062Z,101193.13
2023-02-03T01:50:06.574Z,101193.50
2023-02-03T01:51:09.615Z,101193.59
2023-02-03T01:52:11.806Z,101186.16
2023-02-03T01:53:14.726Z,101176.34
2023-02-03T01:54:19.266Z,101184.41
2023-02-03T01:55:25.639Z,101186.09
2023-02-03T01:56:30.623Z,101184.31
2023-02-03T01:57:35.891Z,101186.16
2023-02-03T01:58:40.229Z,101175.91
2023-02-03T01:59:43.871Z,101171.78
2023-02-03T02:00:45.730Z,101166.63
2023-02-03T02:01:48.554Z,101166.84
2023-02-03T02:02:50.505Z,101152.91
2023-02-03T02:03:57.195Z,101165.34
2023-02-03T02:05:04.194Z,101150.19
2023-02-03T02:06:08.732Z,101134.63
2023-02-03T02:07:10.870Z,101148.13
2023-02-03T02:08:14.642Z,101151.09
2023-02-03T02:09:16.516Z,101153.97
2023-02-03T02:10:19.486Z,101160.75
2023-02-03T02:11:21.871Z,101154.81
2023-02-03T02:12:24.543Z,101150.38
2023-02-03T02:13:26.520Z,101153.97
2023-02-03T02:14:29.168Z,101156.56
2023-02-03T02:15:40.332Z,101165.75
2023-02-03T02:16:51.439Z,101161.78
2023-02-03T02:18:05.175Z,101162.25
2023-02-03T02:19:28.284Z,101155.41
2023-02-03T02:20:55.141Z,101148.38
2023-02-03T02:22:03.922Z,101149.00
2023-02-03T02:23:30.905Z,101144.09
2023-02-03T02:24:44.743Z,101145.00
2023-02-03T02:25:58.095Z,101132.72
2023-02-03T02:27:04.196Z,101131.16
2023-02-03T02:28:47.087Z,101153.13
2023-02-03T02:30:18.519Z,101150.50
2023-02-03T02:31:46.451Z,101155.47
2023-02-03T02:32:57.300Z,101167.41
2023-02-03T02:34:03.598Z,101166.06
2023-02-03T02:35:12.286Z,101183.22
2023-02-03T02:36:20.803Z,101183.75
2023-02-03T02:37:28.224Z,101186.16
2023-02-03T02:38:38.684Z,101185.09
2023-02-03T02:39:46.754Z,101186.81
2023-02-03T02:40:52.964Z,101195.00
2023-02-03T02:41:59.884Z,101190.06
2023-02-03T02:43:06.666Z,101180.72
2023-02-03T02:44:12.216Z,101184.78
2023-02-03T02:45:17.025Z,101183.75
2023-02-03T02:46:24.103Z,101173.84
2023-02-03T02:47:27.268Z,101178.69
2023-02-03T02:48:34.418Z,101190.78
2023-02-03T02:49:40.080Z,101190.31
2023-02-03T02:50:46.152Z,101188.59
2023-02-03T02:51:49.472Z,101187.75
2023-02-03T02:52:51.664Z,101200.78
2023-02-03T02:53:57.091Z,101202.31
2023-02-03T02:55:03.719Z,101213.22
2023-02-03T02:56:09.762Z,101213.94
2023-02-03T02:57:14.025Z,101210.75
2023-02-03T02:58:18.193Z,101216.19
2023-02-03T02:59:19.899Z,101211.59
2023-02-03T03:00:22.911Z,101200.44
2023-02-03T03:01:24.792Z,101198.56
2023-02-03T03:02:35.614Z,101202.38
2023-02-03T03:03:40.566Z,101207.38
2023-02-03T03:04:44.138Z,101215.34
2023-02-03T03:05:49.791Z,101218.28
2023-02-03T03:06:56.100Z,101221.34
2023-02-03T03:08:02.206Z,101218.16
2023-02-03T03:09:07.488Z,101225.84
2023-02-03T03:10:11.801Z,101216.97
2023-02-03T03:11:14.482Z,101214.56
2023-02-03T03:12:19.520Z,101208.47
2023-02-03T03:13:25.470Z,101199.59
2023-02-03T03:14:29.523Z,101203.03
2023-02-03T03:15:33.567Z,101215.66
2023-02-03T03:16:39.038Z,101196.16
2023-02-03T03:17:43.986Z,101189.28
2023-02-03T03:18:48.282Z,101188.38
2023-02-03T03:19:53.531Z,101187.28
2023-02-03T03:20:59.519Z,101191.25
2023-02-03T03:22:02.921Z,101177.47
2023-02-03T03:23:08.840Z,101176.75
2023-02-03T03:24:12.750Z,101174.34
2023-02-03T03:25:17.850Z,101182.19
2023-02-03T03:26:27.748Z,101173.47
2023-02-03T03:27:32.889Z,101182.75
2023-02-03T03:28:40.621Z,101182.28
2023-02-03T03:29:45.082Z,101190.16
2023-02-03T03:30:46.862Z,101193.25
2023-02-03T03:31:49.781Z,101197.72
2023-02-03T03:32:53.176Z,101191.94
2023-02-03T03:33:55.908Z,101189.91
2023-02-03T03:34:57.711Z,101184.78
2023-02-03T03:36:03.468Z,101180.53
2023-02-03T03:37:13.966Z,101184.53
2023-02-03T03:38:20.632Z,101178.53
2023-02-03T03:39:26.333Z,101187.44
2023-02-03T03:40:33.105Z,101197.47
2023-02-03T03:41:40.873Z,101198.63
2023-02-03T03:42:47.384Z,101202.78
2023-02-03T03:43:51.135Z,101184.94
2023-02-03T03:44:57.874Z,101170.19
2023-02-03T03:46:02.966Z,101179.88
2023-02-03T03:47:09.313Z,101165.78
2023-02-03T03:48:16.797Z,101154.63
2023-02-03T03:49:19.915Z,101157.97
2023-02-03T03:50:25.264Z,101161.78
2023-02-03T03:51:30.321Z,101167.41
2023-02-03T03:52:34.788Z,101156.41
2023-02-03T03:53:39.596Z,101145.81
2023-02-03T03:54:43.756Z,101138.47
2023-02-03T03:55:48.944Z,101146.66
2023-02-03T03:56:55.823Z,101151.66
2023-02-03T03:57:59.361Z,101162.72
2023-02-03T03:59:03.992Z,101157.44
2023-02-03T04:00:07.998Z,101171.44
2023-02-03T04:01:10.681Z,101169.97
2023-02-03T04:02:13.339Z,101172.84
2023-02-03T04:03:20.407Z,101174.97
2023-02-03T04:04:23.393Z,101183.16
2023-02-03T04:05:26.542Z,101175.66
2023-02-03T04:06:28.377Z,101174.50
2023-02-03T04:07:39.766Z,101170.34
2023-02-03T04:08:41.636Z,101166.47
2023-02-03T04:09:44.356Z,101169.13
2023-02-03T04:10:46.404Z,101164.34
2023-02-03T04:12:05.820Z,101153.59
2023-02-03T04:13:08.257Z,101144.34
2023-02-03T04:14:11.010Z,101145.97
2023-02-03T04:15:12.705Z,101145.59
2023-02-03T04:16:15.502Z,101157.91
2023-02-03T04:17:20.062Z,101140.53
2023-02-03T04:18:24.130Z,101150.50
2023-02-03T04:19:26.175Z,101155.25
2023-02-03T04:20:29.174Z,101153.16
2023-02-03T04:21:31.027Z,101154.91
2023-02-03T04:22:34.129Z,101155.25
2023-02-03T04:23:35.816Z,101159.22
2023-02-03T04:24:38.462Z,101160.47
2023-02-03T04:25:40.145Z,101160.22
2023-02-03T04:26:42.846Z,101150.19
2023-02-03T04:27:44.576Z,101178.78
2023-02-03T04:28:47.405Z,101153.66
2023-02-03T04:29:50.701Z,101159.97
2023-02-03T04:30:53.465Z,101159.38
2023-02-03T04:31:55.272Z,101157.34
2023-02-03T04:32:57.939Z,101170.53
2023-02-03T04:34:01.062Z,101170.59
2023-02-03T04:35:04.793Z,101201.78
2023-02-03T04:36:07.264Z,101184.31
2023-02-03T04:37:09.959Z,101163.34
2023-02-03T04:38:11.649Z,101149.72
2023-02-03T04:39:14.333Z,101147.53
2023-02-03T04:40:16.337Z,101138.47
2023-02-03T04:41:19.188Z,101145.59
2023-02-03T04:42:21.206Z,101153.44
2023-02-03T04:43:23.864Z,101141.59
2023-02-03T04:44:25.512Z,101127.66
2023-02-03T04:45:28.237Z,101135.53
2023-02-03T04:46:30.057Z,101129.03
2023-02-03T04:47:32.787Z,101144.31
2023-02-03T04:48:34.480Z,101145.19
2023-02-03T04:49:38.496Z,101155.31
2023-02-03T04:50:40.170Z,101161.34
2023-02-03T04:51:44.055Z,101153.16
2023-02-03T04:52:45.738Z,101167.09
2023-02-03T04:53:48.487Z,101157.56
2023-02-03T04:54:50.166Z,101171.38
2023-02-03T04:55:52.805Z,101180.19
2023-02-03T04:56:54.577Z,101208.59
2023-02-03T04:57:57.647Z,101190.28
2023-02-03T04:58:59.468Z,101193.19
2023-02-03T05:00:02.201Z,101190.94
2023-02-03T05:01:08.122Z,101193.50
2023-02-03T05:02:10.941Z,101184.31
2023-02-03T05:03:12.645Z,101181.72
2023-02-03T05:04:15.434Z,101173.94
2023-02-03T05:05:19.089Z,101171.91
2023-02-03T05:06:25.166Z,101167.22
2023-02-03T05:07:26.857Z,101185.72
2023-02-03T05:08:29.693Z,101187.44
2023-02-03T05:09:31.420Z,101181.81
2023-02-03T05:10:34.095Z,101161.69
2023-02-03T05:11:36.771Z,101157.56
2023-02-03T05:12:39.596Z,101178.84
2023-02-03T05:13:41.351Z,101156.19
2023-02-03T05:14:44.034Z,101157.09
2023-02-03T05:15:45.716Z,101145.19
2023-02-03T05:16:48.419Z,101157.97
2023-02-03T05:17:52.049Z,101145.72
2023-02-03T05:18:54.834Z,101163.09
2023-02-03T05:19:56.633Z,101135.28
2023-02-03T05:21:00.724Z,101138.47
2023-02-03T05:22:02.415Z,101144.25
2023-02-03T05:23:05.117Z,101163.03
2023-02-03T05:24:08.142Z,101152.28
2023-02-03T05:25:11.347Z,101147.00
2023-02-03T05:26:13.129Z,101153.31
2023-02-03T05:27:15.783Z,101152.28
2023-02-03T05:28:17.592Z,101122.28
2023-02-03T05:29:20.434Z,101135.16
2023-02-03T05:30:22.350Z,101131.25
2023-02-03T05:31:25.107Z,101138.34
2023-02-03T05:32:27.105Z,101148.94
2023-02-03T05:33:30.349Z,101151.66
2023-02-03T05:34:32.019Z,101143.16
2023-02-03T05:35:34.693Z,101147.31
2023-02-03T05:36:37.729Z,101154.59
2023-02-03T05:37:40.449Z,101143.53
2023-02-03T05:38:42.505Z,101138.97
2023-02-03T05:39:45.266Z,101138.97
2023-02-03T05:41:07.123Z,101138.97
2023-02-03T05:42:08.838Z,101134.38
2023-02-03T05:43:10.553Z,101137.09
2023-02-03T05:44:13.226Z,101131.84
2023-02-03T05:45:15.005Z,101128.03
2023-02-03T05:46:17.756Z,101131.09
2023-02-03T05:47:19.442Z,101127.44
2023-02-03T05:48:22.141Z,101120.13
2023-02-03T05:49:24.573Z,101118.16
2023-02-03T05:50:30.329Z,101115.56
2023-02-03T05:51:32.040Z,101119.66
2023-02-03T05:52:36.062Z,101111.00
2023-02-03T05:53:37.783Z,101118.41
2023-02-03T05:54:40.476Z,101117.16
2023-02-03T05:55:42.233Z,101104.22
2023-02-03T05:56:45.033Z,101119.94
2023-02-03T05:57:46.714Z,101122.75
2023-02-03T05:58:51.411Z,101121.81
2023-02-03T05:59:53.139Z,101116.53
2023-02-03T06:00:55.829Z,101123.53
2023-02-03T06:01:58.553Z,101116.94
2023-02-03T06:03:02.443Z,101119.09
2023-02-03T06:04:06.204Z,101119.78
2023-02-03T06:05:08.736Z,101131.41
2023-02-03T06:06:11.478Z,101112.88
2023-02-03T06:07:13.281Z,101126.97
2023-02-03T06:08:17.301Z,101134.50
2023-02-03T06:09:19.022Z,101134.97
2023-02-03T06:10:22.157Z,101123.94
2023-02-03T06:11:24.411Z,101121.41
2023-02-03T06:12:29.274Z,101125.31
2023-02-03T06:13:31.263Z,101131.09
2023-02-03T06:14:34.225Z,101139.75
2023-02-03T06:15:39.404Z,101112.84
2023-02-03T06:16:42.142Z,101111.22
2023-02-03T06:17:44.898Z,101124.31
2023-02-03T06:18:47.602Z,101114.41
2023-02-03T06:19:49.533Z,101119.72
2023-02-03T06:20:58.264Z,101120.19
2023-02-03T06:22:00.154Z,101130.38
2023-02-03T06:23:02.860Z,101120.50
2023-02-03T06:24:07.604Z,101125.25
2023-02-03T06:25:11.912Z,101123.53
2023-02-03T06:26:15.742Z,101133.91
2023-02-03T06:27:17.584Z,101104.66
2023-02-03T06:28:20.390Z,101111.38
2023-02-03T06:29:22.123Z,101104.59
2023-02-03T06:30:24.972Z,101120.34
2023-02-03T06:31:27.908Z,101112.16
2023-02-03T06:32:29.628Z,101110.59
2023-02-03T06:33:32.397Z,101124.84
2023-02-03T06:34:34.088Z,101116.69
2023-02-03T06:35:36.971Z,101131.63
2023-02-03T06:36:38.719Z,101118.28
2023-02-03T06:37:41.559Z,101117.94
2023-02-03T06:38:44.196Z,101105.91
2023-02-03T06:39:47.209Z,101109.03
2023-02-03T06:40:50.523Z,101111.38
2023-02-03T06:41:52.326Z,101099.75
2023-02-03T06:42:55.033Z,101117.22
2023-02-03T06:43:56.744Z,101109.69
2023-02-03T06:44:59.445Z,101127.59
2023-02-03T06:46:01.267Z,101117.16
2023-02-03T06:47:04.203Z,101116.81
2023-02-03T06:48:06.128Z,101115.34
2023-02-03T06:49:08.890Z,101117.47
2023-02-03T06:50:12.832Z,101115.50
2023-02-03T06:51:15.597Z,101127.66
2023-02-03T06:52:17.592Z,101113.22
2023-02-03T06:53:20.240Z,101131.09
2023-02-03T06:54:22.210Z,101111.16
2023-02-03T06:55:26.346Z,101117.88
2023-02-03T06:56:28.003Z,101127.25
2023-02-03T06:57:30.637Z,101128.91
2023-02-03T06:58:32.376Z,101151.47
2023-02-03T06:59:35.112Z,101173.06
2023-02-03T07:00:36.878Z,101164.41
2023-02-03T07:01:39.607Z,101152.19
2023-02-03T07:02:41.417Z,101154.13
2023-02-03T07:03:44.579Z,101153.53
2023-02-03T07:04:46.266Z,101152.28
2023-02-03T07:05:48.967Z,101157.81
2023-02-03T07:06:50.826Z,101158.22
2023-02-03T07:07:53.642Z,101155.31
2023-02-03T07:08:55.646Z,101146.59
2023-02-03T07:09:58.309Z,101154.00
2023-02-03T07:11:01.361Z,101159.44
2023-02-03T07:12:04.114Z,101158.38
2023-02-03T07:13:07.583Z,101156.31
2023-02-03T07:14:09.277Z,101138.56
2023-02-03T07:15:12.482Z,101145.06
2023-02-03T07:16:14.466Z,101156.03
2023-02-03T07:17:17.259Z,101168.56
2023-02-03T07:18:43.708Z,101181.31
2023-02-03T07:19:45.969Z,101160.16
2023-02-03T07:20:48.789Z,101173.66
2023-02-03T07:21:50.510Z,101165.47
2023-02-03T07:22:54.498Z,101175.66
2023-02-03T07:23:57.218Z,101169.94
2023-02-03T07:24:58.931Z,101154.09
2023-02-03T07:26:04.567Z,101160.31
2023-02-03T07:27:07.241Z,101169.72
2023-02-03T07:28:09.140Z,101170.91
2023-02-03T07:29:11.833Z,101163.44
2023-02-03T07:30:14.442Z,101163.72
2023-02-03T07:31:17.321Z,101165.13
2023-02-03T07:32:19.011Z,101129.97
2023-02-03T07:33:21.679Z,101141.59
2023-02-03T07:34:25.790Z,101147.06
2023-02-03T07:35:29.026Z,101133.81
2023-02-03T07:36:31.782Z,101137.53
2023-02-03T07:37:33.454Z,101132.75
2023-02-03T07:38:38.040Z,101128.78
2023-02-03T07:39:40.815Z,101137.16
2023-02-03T07:40:42.494Z,101122.97
2023-02-03T07:41:46.501Z,101144.41
2023-02-03T07:42:49.153Z,101136.78
2023-02-03T07:43:51.856Z,101131.47
2023-02-03T07:44:53.580Z,101150.41
2023-02-03T07:45:56.258Z,101158.75
2023-02-03T07:46:58.962Z,101155.81
2023-02-03T07:48:00.620Z,101148.44
2023-02-03T07:49:05.913Z,101148.69
2023-02-03T07:50:12.887Z,101147.28
2023-02-03T07:51:15.579Z,101145.97
2023-02-03T07:52:18.272Z,101154.75
2023-02-03T07:53:21.013Z,101173.25
2023-02-03T07:54:22.799Z,101154.38
2023-02-03T07:55:25.533Z,101152.69
2023-02-03T07:56:27.201Z,101167.34
2023-02-03T07:57:31.378Z,101158.13
2023-02-03T07:58:33.175Z,101149.50
2023-02-03T07:59:36.042Z,101161.78
2023-02-03T08:00:37.823Z,101158.91
2023-02-03T08:01:40.613Z,101159.38
2023-02-03T08:02:43.761Z,101170.19
2023-02-03T08:03:46.480Z,101170.34
2023-02-03T08:04:49.937Z,101168.72
2023-02-03T08:05:53.430Z,101175.03
2023-02-03T08:06:56.077Z,101171.91
2023-02-03T08:07:59.457Z,101182.84
2023-02-03T08:09:03.140Z,101173.78
2023-02-03T08:10:06.765Z,101196.06
2023-02-03T08:11:09.565Z,101178.38
2023-02-03T08:12:11.240Z,101170.75
2023-02-03T08:13:15.293Z,101194.28
2023-02-03T08:14:17.375Z,101173.78
2023-02-03T08:15:20.085Z,101170.28
2023-02-03T08:16:22.910Z,101166.44
2023-02-03T08:17:24.745Z,101173.72
2023-02-03T08:18:27.493Z,101178.44
2023-02-03T08:19:29.309Z,101183.44
2023-02-03T08:20:31.998Z,101186.81
2023-02-03T08:21:34.796Z,101155.47
2023-02-03T08:22:37.493Z,101185.47
2023-02-03T08:23:40.278Z,101169.13
2023-02-03T08:24:45.584Z,101166.94
2023-02-03T08:25:52.061Z,101158.88
2023-02-03T08:26:54.916Z,101165.44
2023-02-03T08:27:56.633Z,101149.78
2023-02-03T08:29:00.683Z,101162.88
2023-02-03T08:30:02.487Z,101163.72
2023-02-03T08:31:10.882Z,101158.59
2023-02-03T08:32:14.928Z,101183.69
2023-02-03T08:33:17.936Z,101168.41
2023-02-03T08:34:20.648Z,101150.69
2023-02-03T08:35:23.402Z,101160.38
2023-02-03T08:36:26.215Z,101148.13
2023-02-03T08:37:31.726Z,101141.66
2023-02-03T08:38:34.816Z,101136.44
2023-02-03T08:39:36.538Z,101130.69
2023-02-03T08:40:39.551Z,101156.47
2023-02-03T08:41:42.241Z,101137.22
2023-02-03T08:42:44.918Z,101160.28
2023-02-03T08:43:47.723Z,101165.59
2023-02-03T08:44:50.924Z,101145.25
2023-02-03T08:45:53.674Z,101149.31
2023-02-03T08:46:55.449Z,101143.91
2023-02-03T08:47:58.397Z,101143.09
2023-02-03T08:49:02.822Z,101141.72
2023-02-03T08:50:06.532Z,101152.38
2023-02-03T08:51:13.440Z,101151.69
2023-02-03T08:52:18.825Z,101146.16
2023-02-03T08:53:21.878Z,101150.44
2023-02-03T08:54:24.379Z,101167.38
2023-02-03T08:55:27.037Z,101160.91
2023-02-03T08:56:29.880Z,101157.63
2023-02-03T08:57:33.287Z,101143.50
2023-02-03T08:58:36.026Z,101152.88
2023-02-03T08:59:39.115Z,101151.69
2023-02-03T09:00:43.208Z,101151.91
2023-02-03T09:01:45.885Z,101152.00
2023-02-03T09:02:48.594Z,101157.13
2023-02-03T09:03:51.377Z,101169.16
2023-02-03T09:04:53.229Z,101160.97
2023-02-03T09:05:56.444Z,101165.59
2023-02-03T09:06:59.127Z,101171.63
2023-02-03T09:08:02.030Z,101171.66
2023-02-03T09:09:05.040Z,101186.28
2023-02-03T09:10:07.399Z,101157.25
2023-02-03T09:11:14.644Z,101172.31
2023-02-03T09:12:16.362Z,101179.63
2023-02-03T09:13:19.150Z,101159.38
2023-02-03T09:14:22.017Z,101157.88
2023-02-03T09:15:25.331Z,101158.53
2023-02-03T09:16:30.973Z,101158.91
2023-02-03T09:17:33.713Z,101157.75
2023-02-03T09:18:35.605Z,101155.34
2023-02-03T09:19:38.520Z,101150.25
2023-02-03T09:20:41.279Z,101158.09
2023-02-03T09:21:48.358Z,101154.09
2023-02-03T09:22:51.253Z,101145.50
2023-02-03T09:23:53.324Z,101163.41
2023-02-03T09:24:55.981Z,101153.59
2023-02-03T09:26:02.180Z,101159.16
2023-02-03T09:27:05.084Z,101147.91
2023-02-03T09:28:06.963Z,101143.19
2023-02-03T09:29:09.811Z,101143.19
2023-02-03T09:30:14.520Z,101129.25
2023-02-03T09:31:17.896Z,101136.78
2023-02-03T09:32:22.347Z,101167.16
2023-02-03T09:33:24.087Z,101161.00
2023-02-03T09:34:26.828Z,101156.69
2023-02-03T09:35:30.163Z,101168.53
2023-02-03T09:36:32.954Z,101168.69
2023-02-03T09:37:36.706Z,101158.59
2023-02-03T09:38:40.067Z,101157.63
2023-02-03T09:39:42.837Z,101154.56
2023-02-03T09:40:45.181Z,101147.91
2023-02-03T09:41:56.853Z,101155.59
2023-02-03T09:43:05.661Z,101173.63
2023-02-03T09:44:13.181Z,101169.38
2023-02-03T09:45:19.626Z,101174.00
2023-02-03T09:46:24.101Z,101164.94
2023-02-03T09:47:30.063Z,101161.44
2023-02-03T09:48:37.375Z,101154.09
2023-02-03T09:49:43.102Z,101153.03
2023-02-03T09:50:46.710Z,101142.09
2023-02-03T09:51:52.755Z,101143.97
2023-02-03T09:52:56.993Z,101147.94
2023-02-03T09:54:02.608Z,101144.69
2023-02-03T09:55:08.324Z,101181.06
2023-02-03T09:56:12.836Z,101155.59
2023-02-03T09:57:19.258Z,101158.97
2023-02-03T09:58:23.271Z,101161.72
2023-02-03T09:59:26.662Z,101149.44
2023-02-03T10:00:32.323Z,101145.88
2023-02-03T10:01:40.857Z,101144.34
2023-02-03T10:02:56.662Z,101140.09
2023-02-03T10:04:03.437Z,101142.28
2023-02-03T10:05:14.530Z,101147.06
2023-02-03T10:06:24.008Z,101152.25
2023-02-03T10:07:30.620Z,101141.81
2023-02-03T10:08:44.983Z,101150.38
2023-02-03T10:09:51.838Z,101160.38
2023-02-03T10:11:10.465Z,101145.22
2023-02-03T10:12:36.261Z,101149.69
2023-02-03T10:13:48.787Z,101152.09
2023-02-03T10:15:02.788Z,101136.38
2023-02-03T10:16:26.036Z,101136.22
2023-02-03T10:17:31.002Z,101140.31
2023-02-03T10:18:38.546Z,101126.50
2023-02-03T10:19:44.941Z,101126.66
2023-02-03T10:20:50.348Z,101126.66
2023-02-03T10:21:55.535Z,101111.97
2023-02-03T10:23:00.997Z,101105.66
2023-02-03T10:24:05.660Z,101103.47
2023-02-03T10:25:16.026Z,101101.22
2023-02-03T10:26:21.831Z,101107.88
2023-02-03T10:27:25.833Z,101105.50
2023-02-03T10:28:31.886Z,101110.44
2023-02-03T10:29:39.130Z,101111.97
2023-02-03T10:30:45.521Z,101111.31
2023-02-03T10:31:49.441Z,101125.00
2023-02-03T10:32:55.557Z,101110.09
2023-02-03T10:34:02.931Z,101106.19
2023-02-03T10:35:07.365Z,101099.38
2023-02-03T10:36:17.203Z,101106.53
2023-02-03T10:37:29.090Z,101104.84
2023-02-03T10:38:41.731Z,101108.78
2023-02-03T10:39:48.558Z,101103.81
2023-02-03T10:40:51.418Z,101105.50
2023-02-03T10:41:54.677Z,101111.13
2023-02-03T10:43:15.189Z,101102.75
2023-02-03T10:44:17.915Z,101099.16
2023-02-03T10:45:21.451Z,101104.31
2023-02-03T10:46:29.403Z,101105.19
2023-02-03T10:47:35.274Z,101105.69
2023-02-03T10:48:41.397Z,101112.88
2023-02-03T10:49:46.301Z,101104.47
2023-02-03T10:50:49.256Z,101109.28
2023-02-03T10:51:53.061Z,101108.22
2023-02-03T10:53:23.048Z,101113.19
2023-02-03T10:54:29.479Z,101097.78
2023-02-03T10:55:33.139Z,101094.91
2023-02-03T10:56:38.108Z,101098.16
2023-02-03T10:57:40.129Z,101098.66
2023-02-03T10:58:48.793Z,101097.28
2023-02-03T10:59:51.482Z,101120.38
2023-02-03T11:00:57.657Z,101105.78
2023-02-03T11:02:08.296Z,101128.03
2023-02-03T11:03:22.024Z,101129.06
2023-02-03T11:04:26.792Z,101109.75
2023-02-03T11:05:30.971Z,101136.91
2023-02-03T11:06:36.282Z,101127.34
2023-02-03T11:07:38.982Z,101127.16
2023-02-03T11:08:43.868Z,101163.06
2023-02-03T11:09:46.678Z,101127.84
2023-02-03T11:10:48.394Z,101129.22
2023-02-03T11:12:05.214Z,101127.66
2023-02-03T11:13:17.741Z,101121.19
2023-02-03T11:14:20.402Z,101136.91
2023-02-03T11:15:23.155Z,101138.09
2023-02-03T11:16:26.172Z,101131.09
2023-02-03T11:17:30.522Z,101127.22
2023-02-03T11:19:03.521Z,101111.16
2023-02-03T11:20:15.207Z,101120.38
2023-02-03T11:21:21.361Z,101116.47
2023-02-03T11:22:30.633Z,101121.25
2023-02-03T11:23:33.428Z,101096.13
2023-02-03T11:24:39.820Z,101087.59
2023-02-03T11:25:41.557Z,101093.72
2023-02-03T11:26:46.590Z,101086.03
2023-02-03T11:27:49.534Z,101077.81
2023-02-03T11:28:53.578Z,101073.38
2023-02-03T11:30:10.482Z,101074.78
2023-02-03T11:31:21.270Z,101081.44
2023-02-03T11:32:26.078Z,101096.16
2023-02-03T11:33:28.935Z,101133.25
2023-02-03T11:34:33.097Z,101075.44
2023-02-03T11:35:37.992Z,101082.97
2023-02-03T11:36:42.347Z,101081.97
2023-02-03T11:37:45.308Z,101090.84
2023-02-03T11:38:48.014Z,101061.94
2023-02-03T11:39:50.887Z,101078.88
2023-02-03T11:41:01.026Z,101055.94
2023-02-03T11:42:04.303Z,101067.41
2023-02-03T11:43:16.687Z,101081.28
2023-02-03T11:44:22.243Z,101068.25
2023-02-03T11:45:27.074Z,101095.81
2023-02-03T11:46:29.053Z,101055.63
2023-02-03T11:47:31.781Z,101070.47
2023-02-03T11:48:37.167Z,101085.38
2023-02-03T11:50:11.010Z,101078.34
2023-02-03T11:51:20.673Z,101091.84
2023-02-03T11:53:11.233Z,101087.06
2023-02-03T11:54:23.495Z,101084.16
2023-02-03T11:55:34.973Z,101085.53
2023-02-03T11:56:54.169Z,101104.00
2023-02-03T11:58:06.390Z,101095.44
2023-02-03T11:59:30.755Z,101093.88
2023-02-03T12:00:38.951Z,101104.69
2023-02-03T12:02:09.661Z,101097.47
2023-02-03T12:03:45.799Z,101084.13
2023-02-03T12:05:07.892Z,101054.75
2023-02-03T12:06:21.805Z,101079.88
2023-02-03T12:07:47.642Z,101071.00
2023-02-03T12:08:59.693Z,101068.94
2023-02-03T12:10:10.486Z,101096.63
2023-02-03T12:11:24.037Z,101079.50
2023-02-03T12:12:42.551Z,101075.75
2023-02-03T12:14:00.578Z,101051.69
2023-02-03T12:15:16.407Z,101069.63
2023-02-03T12:16:30.124Z,101092.84
2023-02-03T12:17:45.736Z,101093.53
2023-02-03T12:18:57.906Z,101043.81
2023-02-03T12:20:07.979Z,101066.84
2023-02-03T12:21:33.445Z,101060.22